Time;durP1;ratioP1;P1;durP2;ratioP2;P2;SDS_P1;SDS_P2;PMS_P1;PMS_P2;Temp;Humidity;BMP_temperature;BMP_pressure;BME280_temperature;BME280_humidity;BME280_pressure;Samples;Min_cycle;Max_cycle;Signal;HPM_P1;HPM_P2
2022/09/08 00:01:21;;;;;;;;;8.67;8.67;;;28.14;101361.75;;;;117443;1189;25658;-55
2022/09/08 00:03:50;;;;;;;;;8.00;7.33;;;28.12;101360.00;;;;117383;1190;25502;-55
2022/09/08 00:06:19;;;;;;;;;10.67;9.33;;;28.12;101360.38;;;;117456;1189;24913;-57
2022/09/08 00:08:47;;;;;;;;;9.33;8.33;;;28.11;101357.70;;;;117452;1190;25158;-54
2022/09/08 00:11:19;;;;;;;;;10.25;10.25;;;28.11;101356.16;;;;117443;1189;24914;-55
2022/09/08 00:13:48;;;;;;;;;10.33;9.67;;;28.11;101351.20;;;;117439;1188;25743;-55
2022/09/08 00:16:20;;;;;;;;;10.50;10.00;;;28.11;101352.48;;;;117462;1190;25128;-55
2022/09/08 00:18:52;;;;;;;;;11.33;8.67;;;28.09;101346.98;;;;117437;1189;24963;-55
2022/09/08 00:21:23;;;;;;;;;10.25;8.50;;;28.08;101345.50;;;;117420;1189;24755;-55
2022/09/08 00:23:51;;;;;;;;;11.00;9.50;;;28.07;101339.85;;;;117420;1189;25508;-55
2022/09/08 00:26:20;;;;;;;;;10.50;9.25;;;28.05;101337.52;;;;117325;1190;24872;-55
2022/09/08 00:28:49;;;;;;;;;8.67;8.33;;;28.05;101333.27;;;;117502;1190;24946;-56
2022/09/08 00:31:18;;;;;;;;;8.75;8.00;;;28.05;101333.14;;;;117406;1189;24714;-55
2022/09/08 00:33:46;;;;;;;;;8.50;8.50;;;28.03;101332.18;;;;117435;1190;25272;-56
2022/09/08 00:36:16;;;;;;;;;12.25;9.00;;;28.03;101330.36;;;;117390;1191;24931;-56
2022/09/08 00:38:55;;;;;;;;;9.33;8.00;;;28.02;101330.81;;;;117475;1190;25200;-55
2022/09/08 00:41:24;;;;;;;;;11.00;11.00;;;28.02;101334.06;;;;117449;1190;25124;-57
2022/09/08 00:44:01;;;;;;;;;11.50;9.50;;;28.04;101332.85;;;;117432;1190;24924;-55
2022/09/08 00:46:39;;;;;;;;;12.25;11.25;;;28.02;101332.21;;;;117339;1189;25358;-57
2022/09/08 00:49:16;;;;;;;;;6.50;6.50;;;28.01;101331.46;;;;117438;1190;25618;-58
2022/09/08 00:51:50;;;;;;;;;9.50;9.00;;;27.99;101330.27;;;;117430;1188;25059;-58
2022/09/08 00:54:19;;;;;;;;;12.25;10.25;;;27.98;101332.27;;;;117418;1188;24918;-56
2022/09/08 00:56:49;;;;;;;;;9.00;7.67;;;27.98;101333.45;;;;117412;1189;25101;-55
2022/09/08 00:59:24;;;;;;;;;12.50;9.75;;;27.98;101336.06;;;;117402;1189;25025;-55
2022/09/08 01:01:53;;;;;;;;;12.00;9.75;;;27.98;101335.54;;;;117433;1189;24851;-55
2022/09/08 01:04:23;;;;;;;;;8.75;8.25;;;27.97;101336.75;;;;117434;1190;25676;-55
2022/09/08 01:13:02;;;;;;;;;8.25;8.00;;;27.98;101330.27;;;;117411;1189;25553;-56
2022/09/08 01:15:30;;;;;;;;;10.00;9.50;;;27.96;101326.09;;;;117410;1190;25125;-55
2022/09/08 01:17:59;;;;;;;;;11.00;11.00;;;27.93;101327.60;;;;117435;1189;25236;-55
2022/09/08 01:20:47;;;;;;;;;12.33;9.00;;;27.92;101327.06;;;;117417;1189;25389;-55
2022/09/08 01:23:56;;;;;;;;;10.75;9.00;;;27.95;101326.09;;;;117462;1189;24797;-55
2022/09/08 01:26:55;;;;;;;;;8.25;8.25;;;28.01;101328.17;;;;117269;1189;25609;-55
2022/09/08 01:29:24;;;;;;;;;10.00;8.25;;;28.00;101329.20;;;;117410;1189;25006;-55
2022/09/08 01:31:53;;;;;;;;;10.33;7.67;;;27.96;101327.58;;;;117454;1190;25731;-56
2022/09/08 01:34:21;;;;;;;;;9.00;9.00;;;27.93;101326.78;;;;117422;1189;24863;-56
2022/09/08 01:36:49;;;;;;;;;10.00;7.67;;;27.92;101323.50;;;;117420;1189;25523;-56
2022/09/08 01:39:19;;;;;;;;;15.25;9.25;;;27.91;101318.28;;;;117420;1189;25994;-55
2022/09/08 01:41:48;;;;;;;;;8.67;8.67;;;27.89;101318.44;;;;117449;1189;25712;-55
2022/09/08 01:44:16;;;;;;;;;8.00;8.00;;;27.89;101316.11;;;;117433;1188;25072;-56
2022/09/08 01:46:45;;;;;;;;;7.75;7.25;;;27.90;101319.02;;;;117425;1190;25409;-55
2022/09/08 01:49:13;;;;;;;;;13.00;9.25;;;27.88;101320.21;;;;117435;1190;25853;-55
2022/09/08 01:51:42;;;;;;;;;10.75;7.25;;;27.88;101319.41;;;;117425;1190;25683;-54
2022/09/08 01:54:10;;;;;;;;;8.00;7.75;;;27.86;101316.66;;;;117436;1190;25647;-55
2022/09/08 01:56:39;;;;;;;;;10.00;9.00;;;27.85;101314.02;;;;117454;1190;25375;-56
2022/09/08 01:59:07;;;;;;;;;10.33;10.33;;;27.86;101313.36;;;;117436;1189;25491;-55
2022/09/08 02:01:36;;;;;;;;;11.75;8.25;;;27.86;101314.67;;;;117426;1190;25642;-56
2022/09/08 02:04:05;;;;;;;;;10.75;10.00;;;27.88;101312.17;;;;117410;1190;25274;-55
2022/09/08 02:06:33;;;;;;;;;9.75;8.00;;;27.86;101310.47;;;;117458;1190;25627;-55
2022/09/08 02:09:01;;;;;;;;;6.75;6.50;;;27.85;101306.63;;;;117403;1190;25141;-55
2022/09/08 02:11:30;;;;;;;;;8.25;8.25;;;27.86;101302.89;;;;117455;1190;24798;-55
2022/09/08 02:13:59;;;;;;;;;10.00;10.00;;;27.84;101302.11;;;;117404;1189;25690;-56
2022/09/08 02:16:28;;;;;;;;;6.25;6.25;;;27.84;101302.69;;;;117465;1189;25521;-56
2022/09/08 02:18:56;;;;;;;;;10.50;8.75;;;27.84;101301.51;;;;117430;1189;25022;-54
2022/09/08 02:21:25;;;;;;;;;8.00;8.00;;;27.85;101304.20;;;;117443;1190;24871;-55
2022/09/08 02:23:55;;;;;;;;;8.00;8.00;;;27.85;101302.52;;;;117460;1190;25592;-55
2022/09/08 02:26:25;;;;;;;;;8.50;8.50;;;27.85;101303.42;;;;117428;1189;25388;-56
2022/09/08 02:28:54;;;;;;;;;13.00;10.00;;;27.84;101300.14;;;;117426;1189;25141;-57
2022/09/08 02:31:24;;;;;;;;;9.25;8.75;;;27.85;101294.61;;;;117470;1189;24895;-57
2022/09/08 02:33:53;;;;;;;;;9.00;8.50;;;27.87;101292.30;;;;117435;1190;25479;-56
2022/09/08 02:36:21;;;;;;;;;11.00;9.00;;;27.86;101292.11;;;;117416;1190;25429;-56
2022/09/08 02:38:52;;;;;;;;;11.00;9.00;;;27.84;101289.36;;;;117410;1190;25067;-56
2022/09/08 02:41:26;;;;;;;;;12.00;12.00;;;27.85;101288.70;;;;117446;1187;25574;-57
2022/09/08 02:43:54;;;;;;;;;13.50;8.50;;;27.85;101292.36;;;;117447;1189;24946;-56
2022/09/08 02:46:24;;;;;;;;;5.00;5.00;;;27.82;101293.78;;;;117446;1190;24752;-56
2022/09/08 02:48:52;;;;;;;;;10.25;7.25;;;27.82;101289.48;;;;117434;1189;25556;-56
2022/09/08 02:51:21;;;;;;;;;5.00;5.00;;;27.82;101291.03;;;;117392;1189;24738;-56
2022/09/08 02:53:52;;;;;;;;;8.25;6.75;;;27.82;101286.05;;;;117439;1190;25179;-57
2022/09/08 02:56:21;;;;;;;;;11.33;9.00;;;27.82;101283.95;;;;117440;1190;25259;-56
2022/09/08 02:58:49;;;;;;;;;8.67;8.67;;;27.83;101286.58;;;;117415;1190;25728;-56
2022/09/08 03:01:18;;;;;;;;;7.50;5.00;;;27.82;101288.02;;;;117452;1189;25477;-57
2022/09/08 03:03:47;;;;;;;;;15.00;9.75;;;27.82;101287.02;;;;117429;1189;25238;-56
2022/09/08 03:06:18;;;;;;;;;11.33;10.33;;;27.82;101280.70;;;;117443;1189;24887;-57
2022/09/08 03:08:46;;;;;;;;;9.33;9.00;;;27.82;101280.67;;;;117399;1189;25649;-56
2022/09/08 03:11:16;;;;;;;;;8.00;7.50;;;27.81;101280.48;;;;117417;1190;25351;-57
2022/09/08 03:13:45;;;;;;;;;9.67;9.67;;;27.82;101277.86;;;;117444;1190;26530;-56
2022/09/08 03:16:13;;;;;;;;;10.25;8.25;;;27.83;101276.15;;;;117403;1190;25289;-57
2022/09/08 03:18:42;;;;;;;;;8.75;8.75;;;27.83;101276.73;;;;117467;1190;25180;-56
2022/09/08 03:21:11;;;;;;;;;10.50;10.25;;;27.84;101282.23;;;;117415;1189;25649;-56
2022/09/08 03:23:39;;;;;;;;;10.00;10.00;;;27.82;101281.91;;;;117446;1190;25698;-57
2022/09/08 03:26:13;;;;;;;;;11.00;11.00;;;27.81;101283.81;;;;117426;1190;25414;-57
2022/09/08 03:28:43;;;;;;;;;8.00;8.00;;;27.80;101287.32;;;;117523;1189;25214;-55
2022/09/08 03:31:18;;;;;;;;;8.50;7.25;;;27.79;101288.52;;;;117503;1190;25436;-56
2022/09/08 03:33:47;;;;;;;;;10.25;8.75;;;27.81;101287.97;;;;117449;1188;24979;-56
2022/09/08 03:36:16;;;;;;;;;10.75;8.75;;;27.82;101286.25;;;;117447;1188;24988;-56
2022/09/08 03:38:45;;;;;;;;;7.00;7.00;;;27.82;101285.80;;;;117518;1189;25611;-57
2022/09/08 03:41:15;;;;;;;;;10.00;8.50;;;27.80;101288.11;;;;117464;1189;24948;-56
2022/09/08 03:43:49;;;;;;;;;10.67;7.00;;;27.79;101292.92;;;;117854;1188;24931;-56
2022/09/08 03:46:18;;;;;;;;;12.00;10.25;;;27.82;101293.03;;;;117511;1188;24975;-56
2022/09/08 03:48:46;;;;;;;;;7.00;7.00;;;27.81;101294.33;;;;117544;1188;25449;-56
2022/09/08 03:51:17;;;;;;;;;11.25;7.75;;;27.81;101291.04;;;;117457;1189;25380;-56
2022/09/08 03:53:46;;;;;;;;;6.75;6.75;;;27.79;101292.60;;;;117512;1188;25627;-54
2022/09/08 03:56:15;;;;;;;;;7.75;7.75;;;27.80;101293.72;;;;117487;1189;25246;-54
2022/09/08 03:58:43;;;;;;;;;10.50;8.50;;;27.79;101299.09;;;;117496;1188;25387;-55
2022/09/08 04:01:17;;;;;;;;;7.50;6.75;;;27.78;101298.17;;;;117452;1189;25112;-55
2022/09/08 04:03:46;;;;;;;;;8.75;8.75;;;27.78;101294.66;;;;117794;1186;25543;-56
2022/09/08 04:06:15;;;;;;;;;7.67;7.67;;;27.79;101295.04;;;;117510;1188;25517;-55
2022/09/08 04:08:44;;;;;;;;;8.75;8.00;;;27.78;101293.09;;;;117507;1188;24878;-57
2022/09/08 04:11:12;;;;;;;;;9.33;7.67;;;27.80;101295.11;;;;117552;1189;25021;-57
2022/09/08 04:13:41;;;;;;;;;8.50;8.50;;;27.79;101294.54;;;;117847;1188;25702;-57
2022/09/08 04:16:09;;;;;;;;;7.25;7.25;;;27.78;101294.16;;;;117514;1189;24993;-56
2022/09/08 04:18:38;;;;;;;;;7.00;7.00;;;27.77;101292.45;;;;117528;1187;24856;-56
2022/09/08 04:21:06;;;;;;;;;8.50;8.00;;;27.76;101296.23;;;;117400;1188;25007;-54
2022/09/08 04:23:34;;;;;;;;;9.50;8.25;;;27.76;101297.86;;;;117446;1188;25016;-55
2022/09/08 04:26:06;;;;;;;;;9.50;9.50;;;27.71;101296.02;;;;117376;1190;25514;-53
2022/09/08 04:28:35;;;;;;;;;7.75;7.75;;;27.70;101295.33;;;;117374;1189;25430;-55
2022/09/08 04:31:09;;;;;;;;;12.25;9.75;;;27.72;101298.32;;;;117474;1190;26149;-54
2022/09/08 04:33:38;;;;;;;;;10.00;10.00;;;27.70;101298.99;;;;117430;1190;24904;-53
2022/09/08 04:36:15;;;;;;;;;10.75;10.25;;;27.72;101296.38;;;;117448;1188;25242;-54
2022/09/08 04:38:55;;;;;;;;;9.00;8.75;;;27.99;101304.36;;;;117422;1190;26252;-57
2022/09/08 04:41:24;;;;;;;;;9.00;9.00;;;28.19;101305.42;;;;117438;1187;25527;-57
2022/09/08 04:43:54;;;;;;;;;10.00;8.33;;;28.29;101306.34;;;;117459;1187;25928;-55
2022/09/08 04:46:22;;;;;;;;;8.33;7.33;;;28.34;101307.51;;;;117436;1190;25469;-54
2022/09/08 04:48:51;;;;;;;;;8.75;8.50;;;28.34;101310.92;;;;117399;1190;25302;-54
2022/09/08 04:51:20;;;;;;;;;10.00;10.00;;;28.34;101311.70;;;;117441;1190;25514;-54
2022/09/08 04:53:51;;;;;;;;;11.00;8.75;;;28.32;101310.23;;;;117458;1190;25072;-55
2022/09/08 04:56:21;;;;;;;;;11.50;9.25;;;28.31;101308.88;;;;117448;1190;25516;-54
2022/09/08 04:58:51;;;;;;;;;8.50;8.25;;;28.28;101312.85;;;;117464;1189;25521;-55
2022/09/08 05:01:26;;;;;;;;;10.50;9.50;;;28.26;101315.41;;;;117427;1189;25259;-54
2022/09/08 05:03:59;;;;;;;;;9.00;9.00;;;28.24;101317.23;;;;117445;1189;25339;-54
2022/09/08 05:06:30;;;;;;;;;6.00;5.50;;;28.23;101315.73;;;;117418;1190;25776;-55
2022/09/08 05:09:00;;;;;;;;;7.50;7.50;;;28.21;101314.96;;;;117424;1190;24889;-55
2022/09/08 05:11:31;;;;;;;;;7.50;7.50;;;28.19;101317.05;;;;117428;1190;24792;-54
2022/09/08 05:13:59;;;;;;;;;8.25;8.00;;;28.17;101320.68;;;;117415;1188;25060;-54
2022/09/08 05:16:29;;;;;;;;;10.00;8.75;;;28.14;101317.80;;;;117479;1190;24971;-54
2022/09/08 05:18:59;;;;;;;;;7.50;7.50;;;28.12;101320.01;;;;117410;1188;26388;-55
2022/09/08 05:21:29;;;;;;;;;9.25;8.50;;;28.11;101322.69;;;;117424;1190;25469;-56
2022/09/08 05:24:00;;;;;;;;;9.67;8.33;;;28.10;101329.02;;;;117827;1186;24917;-54
2022/09/08 05:26:29;;;;;;;;;10.00;7.25;;;28.08;101328.88;;;;117848;1188;24901;-54
2022/09/08 05:28:58;;;;;;;;;8.75;8.25;;;28.07;101329.88;;;;117535;1188;25134;-54
2022/09/08 05:31:29;;;;;;;;;9.33;9.33;;;28.05;101333.99;;;;117510;1189;25686;-54
2022/09/08 05:33:58;;;;;;;;;7.00;7.00;;;28.05;101336.80;;;;117495;1189;24877;-54
2022/09/08 05:36:31;;;;;;;;;7.75;6.75;;;28.03;101335.55;;;;117490;1188;25083;-54
2022/09/08 05:39:01;;;;;;;;;12.00;10.67;;;28.02;101337.84;;;;117520;1188;25305;-54
2022/09/08 05:41:31;;;;;;;;;10.75;9.25;;;28.00;101337.36;;;;117509;1188;24803;-54
2022/09/08 05:44:00;;;;;;;;;10.00;9.00;;;27.98;101339.67;;;;117502;1189;25683;-55
2022/09/08 05:46:29;;;;;;;;;11.75;10.00;;;27.97;101338.43;;;;117435;1190;24970;-55
2022/09/08 05:48:58;;;;;;;;;13.25;10.00;;;27.96;101342.48;;;;117520;1189;25000;-55
2022/09/08 05:51:26;;;;;;;;;10.50;9.25;;;27.95;101340.48;;;;117789;1187;26333;-55
2022/09/08 05:53:58;;;;;;;;;11.50;8.00;;;27.95;101346.73;;;;117476;1190;25650;-55
2022/09/08 05:56:27;;;;;;;;;10.00;8.33;;;27.95;101349.95;;;;117497;1189;25784;-57
2022/09/08 05:59:00;;;;;;;;;7.75;7.50;;;27.91;101350.42;;;;117443;1189;24827;-55
2022/09/08 06:01:32;;;;;;;;;9.75;9.75;;;27.90;101357.71;;;;117444;1189;25438;-52
2022/09/08 06:04:02;;;;;;;;;12.25;12.25;;;27.97;101354.39;;;;117359;1189;25244;-54
2022/09/08 06:06:32;;;;;;;;;15.00;10.33;;;28.00;101347.34;;;;117636;1188;25541;-55
2022/09/08 06:09:02;;;;;;;;;18.67;14.33;;;27.97;101348.39;;;;117430;1189;25780;-55
2022/09/08 06:11:32;;;;;;;;;14.75;12.25;;;27.97;101346.66;;;;117407;1189;25773;-56
2022/09/08 06:14:02;;;;;;;;;16.33;14.67;;;27.97;101350.06;;;;117481;1190;25435;-55
2022/09/08 06:16:32;;;;;;;;;18.00;15.50;;;27.98;101350.73;;;;117456;1188;24836;-55
2022/09/08 06:19:01;;;;;;;;;11.00;10.00;;;27.99;101339.67;;;;117461;1188;25230;-55
2022/09/08 06:21:31;;;;;;;;;13.50;12.50;;;27.97;101352.56;;;;117303;1188;25505;-56
2022/09/08 06:24:02;;;;;;;;;16.00;11.67;;;28.05;101350.96;;;;117632;1188;25706;-55
2022/09/08 06:26:50;;;;;;;;;15.33;13.00;;;27.98;101358.84;;;;117376;1189;24699;-52
2022/09/08 06:29:50;;;;;;;;;17.25;15.50;;;27.98;101360.32;;;;117685;1188;24804;-58
2022/09/08 06:32:34;;;;;;;;;15.25;10.75;;;28.12;101357.65;;;;117520;1188;25267;-55
2022/09/08 06:35:12;;;;;;;;;14.75;14.25;;;28.26;101359.29;;;;117494;1189;24983;-55
2022/09/08 06:37:45;;;;;;;;;17.00;12.00;;;28.34;101356.76;;;;117825;1188;25642;-48
2022/09/08 06:40:25;;;;;;;;;16.33;15.33;;;28.37;101353.50;;;;117399;1190;25515;-59
2022/09/08 06:43:05;;;;;;;;;16.25;13.50;;;28.48;101355.77;;;;117513;1187;25663;-54
2022/09/08 06:45:37;;;;;;;;;16.25;10.75;;;28.71;101336.73;;;;117483;1188;25602;-54
2022/09/08 06:48:31;;;;;;;;;20.75;19.25;;;28.60;101346.29;;;;117525;1189;24761;-58
2022/09/08 06:51:08;;;;;;;;;30.75;21.25;;;28.61;101350.29;;;;117380;1189;25208;-57
2022/09/08 06:54:17;;;;;;;;;29.50;24.50;;;28.69;101375.09;;;;117826;1186;24992;-55
2022/09/08 06:56:51;;;;;;;;;29.00;27.25;;;28.82;101370.07;;;;117541;1188;25651;-55
2022/09/08 06:59:58;;;;;;;;;35.25;28.50;;;28.82;101373.92;;;;117397;1189;24733;-61
2022/09/08 07:02:57;;;;;;;;;31.50;26.25;;;28.75;101380.81;;;;117396;1189;25198;-60
2022/09/08 07:06:01;;;;;;;;;23.75;22.50;;;28.72;101381.95;;;;117366;1188;24842;-63
2022/09/08 07:08:48;;;;;;;;;31.00;24.25;;;28.78;101379.34;;;;117506;1188;24959;-64
2022/09/08 07:11:54;;;;;;;;;28.00;22.50;;;28.85;101376.70;;;;117443;1189;25271;-59
2022/09/08 07:14:49;;;;;;;;;31.25;27.25;;;28.86;101373.80;;;;117700;1188;25581;-59
2022/09/08 07:17:42;;;;;;;;;29.00;19.50;;;28.87;101379.77;;;;117500;1188;25656;-54
2022/09/08 07:20:12;;;;;;;;;19.75;18.00;;;28.87;101378.26;;;;117354;1188;24754;-55
2022/09/08 07:23:05;;;;;;;;;20.75;20.75;;;28.90;101378.43;;;;119466;1189;25326;-58
2022/09/08 07:25:45;;;;;;;;;22.00;20.25;;;29.22;101380.08;;;;119419;1190;25615;-58
2022/09/08 07:28:23;;;;;;;;;24.50;22.00;;;29.46;101376.99;;;;117458;1188;25213;-57
2022/09/08 07:31:01;;;;;;;;;23.00;19.00;;;29.36;101370.73;;;;117319;1189;25580;-56
2022/09/08 07:33:36;;;;;;;;;18.25;17.75;;;29.22;101372.52;;;;118913;1189;25049;-56
2022/09/08 07:36:22;;;;;;;;;13.00;11.75;;;29.36;101369.70;;;;117527;1188;24886;-58
2022/09/08 07:38:56;;;;;;;;;24.00;20.00;;;29.17;101372.06;;;;117427;1189;25245;-57
2022/09/08 07:41:34;;;;;;;;;18.75;18.75;;;29.06;101369.84;;;;117456;1189;25549;-58
2022/09/08 07:44:11;;;;;;;;;27.00;18.25;;;28.99;101368.70;;;;117524;1189;25330;-57
2022/09/08 07:46:43;;;;;;;;;17.00;16.50;;;28.92;101377.55;;;;117769;1188;24879;-56
2022/09/08 07:49:24;;;;;;;;;22.25;17.50;;;28.86;101377.42;;;;117703;1188;24826;-57
2022/09/08 07:52:20;;;;;;;;;20.75;17.25;;;28.84;101380.65;;;;117416;1189;24985;-55
2022/09/08 07:54:50;;;;;;;;;28.00;20.67;;;28.82;101378.48;;;;117399;1190;25934;-56
2022/09/08 07:57:35;;;;;;;;;21.67;19.67;;;28.77;101376.11;;;;117423;1188;25279;-57
2022/09/08 08:00:14;;;;;;;;;22.00;19.50;;;28.76;101375.05;;;;117500;1188;25718;-57
2022/09/08 08:03:07;;;;;;;;;22.50;16.50;;;28.85;101371.77;;;;117494;1189;25721;-54
2022/09/08 08:05:43;;;;;;;;;24.75;17.75;;;28.73;101363.85;;;;117422;1190;25109;-52
2022/09/08 08:08:29;;;;;;;;;22.50;18.50;;;28.75;101368.89;;;;117414;1188;24966;-55
2022/09/08 08:11:29;;;;;;;;;19.75;16.00;;;28.79;101364.63;;;;117502;1188;25082;-54
2022/09/08 08:14:08;;;;;;;;;15.25;14.75;;;28.76;101378.77;;;;117388;1190;24850;-52
2022/09/08 08:16:58;;;;;;;;;15.00;13.75;;;28.75;101379.12;;;;117476;1188;25524;-52
2022/09/08 08:19:51;;;;;;;;;16.50;15.00;;;28.74;101382.77;;;;117834;1187;25427;-53
2022/09/08 08:22:43;;;;;;;;;17.50;17.50;;;28.71;101376.27;;;;117747;1187;25685;-53
2022/09/08 08:25:34;;;;;;;;;18.00;14.75;;;28.72;101377.51;;;;117464;1186;24730;-53
2022/09/08 08:28:17;;;;;;;;;20.00;17.50;;;28.72;101371.98;;;;117529;1189;25443;-55
2022/09/08 08:31:10;;;;;;;;;19.75;19.00;;;28.72;101373.51;;;;117833;1187;25631;-54
2022/09/08 08:33:51;;;;;;;;;21.00;15.50;;;28.73;101368.06;;;;117472;1189;25544;-54
2022/09/08 08:36:25;;;;;;;;;12.00;11.00;;;28.74;101364.60;;;;117503;1188;24993;-53
2022/09/08 08:39:08;;;;;;;;;18.50;18.50;;;28.77;101363.66;;;;117510;1188;26099;-53
2022/09/08 08:41:45;;;;;;;;;17.00;16.00;;;28.76;101356.36;;;;117492;1189;26240;-54
2022/09/08 08:44:59;;;;;;;;;17.50;16.00;;;28.76;101353.52;;;;117426;1189;25666;-53
2022/09/08 08:48:40;;;;;;;;;13.00;13.00;;;28.80;101352.64;;;;117517;1186;24720;-53
2022/09/08 08:51:26;;;;;;;;;17.75;15.25;;;28.83;101345.29;;;;117115;1193;24823;-53
2022/09/08 08:54:30;;;;;;;;;16.25;15.25;;;28.81;101341.30;;;;117461;1188;25460;-52
2022/09/08 08:57:22;;;;;;;;;16.25;14.75;;;28.80;101340.78;;;;117134;1189;25599;-55
2022/09/08 09:00:21;;;;;;;;;16.00;10.75;;;28.80;101336.64;;;;117481;1189;24773;-53
2022/09/08 09:02:55;;;;;;;;;20.00;16.25;;;28.78;101334.05;;;;117887;1188;25431;-55
2022/09/08 09:05:42;;;;;;;;;17.67;16.00;;;28.74;101327.07;;;;117510;1189;25408;-54
2022/09/08 09:08:10;;;;;;;;;17.50;15.50;;;28.70;101330.02;;;;117513;1187;24846;-53
2022/09/08 09:11:08;;;;;;;;;23.67;17.00;;;28.69;101334.89;;;;117474;1188;25423;-54
2022/09/08 09:14:09;;;;;;;;;15.25;14.75;;;28.67;101331.89;;;;117512;1189;25224;-53
2022/09/08 09:17:15;;;;;;;;;18.25;17.00;;;28.68;101326.20;;;;117487;1188;25006;-54
2022/09/08 09:20:06;;;;;;;;;13.33;10.00;;;28.73;101325.10;;;;117501;1189;25205;-54
2022/09/08 09:22:42;;;;;;;;;12.67;12.67;;;28.74;101324.27;;;;117817;1186;24894;-55
2022/09/08 09:25:17;;;;;;;;;17.50;16.00;;;28.68;101319.77;;;;117466;1189;24976;-55
2022/09/08 09:27:51;;;;;;;;;20.25;17.50;;;28.63;101325.08;;;;117415;1189;25013;-53
2022/09/08 09:30:57;;;;;;;;;17.00;15.50;;;28.62;101329.44;;;;117414;1188;25247;-54
2022/09/08 09:33:57;;;;;;;;;19.00;14.00;;;28.63;101323.86;;;;117455;1187;25362;-54
2022/09/08 09:36:47;;;;;;;;;20.00;16.50;;;28.66;101316.05;;;;117434;1189;25526;-55
2022/09/08 09:39:26;;;;;;;;;18.00;14.75;;;28.69;101311.48;;;;117437;1187;25424;-54
2022/09/08 09:42:29;;;;;;;;;19.33;16.00;;;28.67;101312.55;;;;117478;1190;25059;-55
2022/09/08 09:45:05;;;;;;;;;15.00;15.00;;;28.68;101310.09;;;;117473;1189;25763;-55
2022/09/08 09:47:39;;;;;;;;;17.00;14.50;;;28.65;101310.20;;;;117465;1190;25619;-52
2022/09/08 09:50:31;;;;;;;;;22.00;17.00;;;28.62;101303.00;;;;117451;1189;25293;-53
2022/09/08 09:53:27;;;;;;;;;20.25;16.75;;;28.60;101300.34;;;;117447;1190;25014;-53
2022/09/08 09:56:13;;;;;;;;;16.00;16.00;;;28.60;101298.63;;;;117431;1189;25659;-53
2022/09/08 09:58:54;;;;;;;;;16.33;15.33;;;28.60;101295.14;;;;117437;1189;24868;-52
2022/09/08 10:01:26;;;;;;;;;17.00;16.00;;;28.60;101293.20;;;;117480;1189;25481;-54
2022/09/08 10:04:32;;;;;;;;;17.75;16.50;;;28.61;101292.46;;;;117452;1189;25516;-53
2022/09/08 10:07:23;;;;;;;;;19.25;16.50;;;28.58;101290.02;;;;117452;1189;24870;-52
2022/09/08 10:10:11;;;;;;;;;17.00;16.33;;;28.58;101286.39;;;;117475;1189;25297;-52
2022/09/08 10:12:55;;;;;;;;;20.67;19.00;;;28.57;101279.59;;;;117478;1189;25470;-53
2022/09/08 10:15:49;;;;;;;;;24.50;17.25;;;28.51;101279.54;;;;117487;1190;24856;-62
2022/09/08 10:18:42;;;;;;;;;18.25;15.50;;;28.57;101285.08;;;;117260;1189;25391;-62
2022/09/08 10:21:39;;;;;;;;;17.00;15.25;;;28.61;101281.84;;;;117431;1190;25680;-62
2022/09/08 10:24:14;;;;;;;;;15.00;14.33;;;28.61;101282.13;;;;117462;1188;25190;-60
2022/09/08 10:26:52;;;;;;;;;17.33;14.33;;;28.57;101282.90;;;;117810;1188;25022;-62
2022/09/08 10:30:03;;;;;;;;;18.25;16.75;;;28.56;101283.20;;;;117498;1188;24946;-60
2022/09/08 10:32:56;;;;;;;;;16.00;13.50;;;28.59;101285.64;;;;117512;1189;25238;-62
2022/09/08 10:35:33;;;;;;;;;20.00;17.50;;;28.60;101282.17;;;;117464;1188;25473;-62
2022/09/08 10:38:08;;;;;;;;;21.00;18.00;;;28.60;101280.55;;;;117463;1190;24888;-62
2022/09/08 10:40:45;;;;;;;;;18.33;15.33;;;28.57;101267.04;;;;117780;1188;25314;-60
2022/09/08 10:43:16;;;;;;;;;17.75;17.50;;;28.58;101264.11;;;;117394;1190;25451;-62
2022/09/08 10:46:14;;;;;;;;;18.50;16.75;;;28.57;101263.73;;;;117455;1189;25576;-60
2022/09/08 10:49:05;;;;;;;;;22.50;19.50;;;28.58;101269.91;;;;117711;1187;25178;-71
2022/09/08 10:51:52;;;;;;;;;20.00;17.67;;;28.58;101267.98;;;;117371;1189;25028;-68
2022/09/08 10:54:34;;;;;;;;;15.25;14.00;;;28.68;101266.33;;;;117407;1190;25422;-66
2022/09/08 10:57:26;;;;;;;;;22.50;20.25;;;28.67;101259.03;;;;117449;1189;25212;-68
2022/09/08 11:00:14;;;;;;;;;15.25;14.50;;;28.66;101255.86;;;;117451;1188;25355;-61
2022/09/08 11:02:57;;;;;;;;;17.75;16.25;;;28.69;101249.81;;;;117401;1190;25621;-64
2022/09/08 11:05:58;;;;;;;;;21.25;16.75;;;28.67;101246.62;;;;117435;1189;24997;-64
2022/09/08 11:08:32;;;;;;;;;18.50;17.25;;;28.59;101242.55;;;;117165;1189;25764;-63
2022/09/08 11:11:21;;;;;;;;;19.00;18.00;;;28.67;101248.06;;;;117397;1189;24731;-63
2022/09/08 11:14:04;;;;;;;;;17.00;15.75;;;28.69;101236.10;;;;117397;1189;25269;-63
2022/09/08 11:16:51;;;;;;;;;20.50;19.00;;;28.69;101238.08;;;;117407;1190;25479;-63
2022/09/08 11:19:35;;;;;;;;;20.00;17.75;;;28.68;101237.41;;;;117452;1190;24998;-63
2022/09/08 11:22:22;;;;;;;;;17.00;17.00;;;28.66;101237.17;;;;117416;1189;24918;-61
2022/09/08 11:24:56;;;;;;;;;15.50;15.25;;;28.65;101233.88;;;;117487;1189;24842;-62
2022/09/08 11:27:28;;;;;;;;;19.00;14.00;;;28.63;101233.77;;;;117790;1188;24870;-62
2022/09/08 11:30:03;;;;;;;;;23.33;16.00;;;28.62;101235.11;;;;117481;1188;24819;-62
2022/09/08 11:33:00;;;;;;;;;26.50;17.75;;;28.62;101234.21;;;;117774;1188;25612;-60
2022/09/08 11:35:44;;;;;;;;;21.25;19.25;;;28.61;101229.38;;;;117475;1189;24944;-62
2022/09/08 11:38:24;;;;;;;;;16.75;16.75;;;28.65;101231.35;;;;117535;1188;25307;-63
2022/09/08 11:41:19;;;;;;;;;17.25;14.75;;;28.68;101226.70;;;;117465;1188;25578;-63
2022/09/08 11:44:05;;;;;;;;;19.00;17.75;;;28.67;101225.13;;;;117448;1188;25394;-61
2022/09/08 11:46:52;;;;;;;;;24.33;20.00;;;28.73;101221.19;;;;117511;1187;24955;-57
2022/09/08 11:49:48;;;;;;;;;22.50;19.00;;;28.66;101220.66;;;;117524;1189;25347;-58
2022/09/08 11:52:48;;;;;;;;;19.00;17.33;;;28.70;101215.80;;;;117475;1189;24884;-60
2022/09/08 11:56:05;;;;;;;;;17.00;17.00;;;28.78;101213.10;;;;117442;1188;25173;-59
2022/09/08 11:58:44;;;;;;;;;19.25;12.75;;;28.85;101208.23;;;;117487;1189;25419;-57
2022/09/08 12:01:34;;;;;;;;;16.75;16.25;;;28.78;101203.00;;;;117447;1188;25294;-55
2022/09/08 12:04:21;;;;;;;;;15.75;15.75;;;29.43;101205.03;;;;117797;1187;25324;-58
2022/09/08 12:07:31;;;;;;;;;19.50;18.25;;;29.58;101206.31;;;;117437;1188;25486;-58
2022/09/08 12:10:21;;;;;;;;;20.00;16.67;;;29.37;101205.21;;;;117030;1193;24902;-56
2022/09/08 12:12:52;;;;;;;;;15.50;14.75;;;29.16;101208.89;;;;117110;1193;25260;-58
2022/09/08 12:15:29;;;;;;;;;18.75;17.75;;;28.99;101203.66;;;;117325;1188;25487;-58
2022/09/08 12:18:24;;;;;;;;;18.00;16.00;;;28.89;101206.70;;;;117671;1188;24709;-58
2022/09/08 12:21:07;;;;;;;;;19.33;15.33;;;28.86;101205.04;;;;117217;1187;25330;-62
2022/09/08 12:23:49;;;;;;;;;18.75;16.25;;;28.86;101203.33;;;;117510;1188;25502;-61
2022/09/08 12:26:55;;;;;;;;;21.00;14.33;;;28.86;101200.86;;;;117179;1189;25474;-60
2022/09/08 12:29:42;;;;;;;;;17.25;17.25;;;28.86;101205.20;;;;117411;1189;24807;-57
2022/09/08 12:32:19;;;;;;;;;19.25;18.25;;;28.78;101202.24;;;;117214;1189;24909;-60
2022/09/08 12:35:08;;;;;;;;;17.33;15.67;;;28.76;101196.60;;;;117247;1189;25393;-59
2022/09/08 12:37:57;;;;;;;;;15.00;13.75;;;28.76;101193.16;;;;117299;1190;25150;-60
2022/09/08 12:41:05;;;;;;;;;13.25;13.25;;;28.72;101191.60;;;;117439;1189;25299;-61
2022/09/08 12:43:36;;;;;;;;;20.25;18.00;;;28.69;101188.82;;;;117433;1189;25293;-59
2022/09/08 12:46:44;;;;;;;;;18.00;17.33;;;28.68;101187.40;;;;117398;1190;25338;-60